Terminal Aerodrome Forecast
Issued by NWS

Home | Current Version | Previous Version | Text Only | Print | Product List | Glossary Off
Versions: 1 2 3 4 5 6 7 8 9 10 11 12 13 14 15 16 17 18 19 20 21 22 23

000
FTUS41 KCLE 232300
TAFFDY
TAF
KFDY 232340Z 2400/2424 10010KT 6SM -SHRA SCT012 OVC045
      WS020/18048KT
     FM240200 12015KT 4SM -SHRA SCT006 OVC015 WS020/19055KT
      TEMPO 2402/2405 2SM -SHRA OVC006
     FM240500 14015G25KT 4SM -SHRA OVC006
     FM241000 20015G25KT P6SM VCSH BKN012 OVC020
     FM241600 25028G40KT P6SM OVC025
      TEMPO 2416/2418 3SM -SHRA=

USA.gov is the U.S. government's official web portal to all federal, state and local government web resources and services.